East Millstone, New Jersey
Current Conditions -  °F | °C
As of 12:53 AM on Wednesday 22 Oct 2014 (Local Time) from KSMQ Reporting Station
Clear Clear  
Wind Chill: 49°   Ceiling: Unl
Heat Index: 49°   Visibility: 7mi
Dew Point: 47°   Wind: 3mph
Humidity: 93%   Direction: 310°NW
Pressure: 29.89"   Gusts: NA
Location:  40.5013°N, 74.5325°W
Report Text: KSMQ 220453Z AUTO 31003KT 7SM CLR 09/08 A2989 RMK AO2 SLP123 T00940083 402060072
Loading
Personal Weather Stations






























Interactive Weather Map
Tropical Storm Tracking
New forecast layout! Learn more

10-Day Weather Forecast

Advertisements
Track Severe Weather on mobile